Time,TemperatureF,DewpointF,PressureIn,WindDirection,WindDirectionDegrees,WindSpeedMPH,WindSpeedGustMPH,Humidity,HourlyPrecipIn,Conditions,Clouds,dailyrainin,SoftwareType,DateUTC
2014-04-18 00:22:00,37.0,19.0,30.05,North,0,0.0,0.0,48,0.00,,,0.00,,2014-04-18 07:22:00,
2014-04-18 00:52:00,39.0,20.0,30.05,North,0,0.0,0.0,46,0.00,,,0.00,,2014-04-18 07:52:00,
2014-04-18 01:21:00,35.0,21.0,30.03,ENE,65,3.0,7.0,56,0.00,,,0.00,,2014-04-18 08:21:00,
2014-04-18 01:52:00,39.0,21.0,30.03,SSW,201,0.0,4.0,49,0.00,,,0.00,,2014-04-18 08:52:00,
2014-04-18 02:21:00,36.0,20.0,30.02,North,352,2.0,4.0,51,0.00,,,0.00,,2014-04-18 09:21:00,
2014-04-18 02:54:00,36.0,21.0,30.02,ENE,60,2.0,4.0,53,0.00,,,0.00,,2014-04-18 09:54:00,
2014-04-18 03:23:00,35.0,21.0,30.01,NNE,29,1.0,4.0,56,0.00,,,0.00,,2014-04-18 10:23:00,
2014-04-18 03:53:00,35.0,20.0,30.02,NNE,24,1.0,2.0,55,0.00,,,0.00,,2014-04-18 10:53:00,
2014-04-18 04:21:00,34.0,21.0,30.01,NE,34,2.0,3.0,58,0.00,,,0.00,,2014-04-18 11:21:00,
2014-04-18 04:52:00,35.0,20.0,30.01,East,90,1.0,3.0,55,0.00,,,0.00,,2014-04-18 11:52:00,
2014-04-18 05:21:00,36.0,21.0,30.01,North,0,0.0,0.0,54,0.00,,,0.00,,2014-04-18 12:21:00,
2014-04-18 05:52:00,36.0,21.0,30.01,NW,325,0.0,2.0,53,0.00,,,0.00,,2014-04-18 12:52:00,
2014-04-18 06:22:00,37.0,21.0,30.02,NW,314,1.0,2.0,52,0.00,,,0.00,,2014-04-18 13:22:00,
2014-04-18 06:52:00,36.0,24.0,30.03,ENE,59,2.0,4.0,62,0.00,,,0.00,,2014-04-18 13:52:00,
2014-04-18 07:21:00,44.0,26.0,30.04,East,93,4.0,7.0,49,0.00,,,0.00,,2014-04-18 14:21:00,
2014-04-18 08:21:00,51.0,29.0,30.05,SSE,147,2.0,4.0,42,0.00,,,0.00,,2014-04-18 15:21:00,
2014-04-18 08:52:00,53.0,27.0,30.06,SE,140,3.0,8.0,37,0.00,,,0.00,,2014-04-18 15:52:00,
2014-04-18 09:22:00,54.0,28.0,30.06,SE,135,8.0,15.0,36,0.00,,,0.00,,2014-04-18 16:22:00,
2014-04-18 09:52:00,54.0,28.0,30.07,South,173,8.0,18.0,37,0.00,,,0.00,,2014-04-18 16:52:00,
2014-04-18 10:22:00,54.0,28.0,30.07,ESE,104,6.0,11.0,37,0.00,,,0.00,,2014-04-18 17:22:00,
2014-04-18 10:42:00,55.0,30.0,30.07,SE,140,6.0,12.0,38,0.00,,,0.00,,2014-04-18 17:42:00,
2014-04-18 10:51:00,55.0,32.0,30.07,South,171,8.0,20.0,41,0.00,,,0.00,,2014-04-18 17:51:00,
2014-04-18 11:21:00,56.0,34.0,30.07,South,175,9.0,24.0,43,0.00,,,0.00,,2014-04-18 18:21:00,
2014-04-18 11:51:00,58.0,36.0,30.07,South,187,18.0,30.0,43,0.00,,,0.00,,2014-04-18 18:51:00,
2014-04-18 12:21:00,59.0,35.0,30.06,SSW,197,17.0,29.0,41,0.00,,,0.00,,2014-04-18 19:21:00,
2014-04-18 12:51:00,58.0,33.0,30.06,South,191,13.0,34.0,38,0.01,,,0.01,,2014-04-18 19:51:00,
2014-04-18 13:21:00,60.0,31.0,30.06,SW,216,16.0,36.0,33,0.01,,,0.01,,2014-04-18 20:21:00,
2014-04-18 13:51:00,58.0,29.0,30.05,SSW,200,16.0,30.0,33,0.00,,,0.01,,2014-04-18 20:51:00,
2014-04-18 14:22:00,56.0,30.0,30.06,South,184,15.0,34.0,37,0.00,,,0.01,,2014-04-18 21:22:00,
2014-04-18 14:53:00,54.0,33.0,30.06,South,185,13.0,23.0,44,0.00,,,0.01,,2014-04-18 21:53:00,
2014-04-18 15:23:00,53.0,35.0,30.05,SSE,154,21.0,33.0,50,0.00,,,0.01,,2014-04-18 22:23:00,
2014-04-18 15:53:00,52.0,37.0,30.05,SSW,210,12.0,28.0,57,0.00,,,0.01,,2014-04-18 22:53:00,
2014-04-18 16:22:00,51.0,37.0,30.04,South,186,11.0,29.0,59,0.00,,,0.01,,2014-04-18 23:22:00,
2014-04-18 16:52:00,50.0,42.0,30.05,South,190,13.0,20.0,73,0.00,,,0.01,,2014-04-18 23:52:00,
2014-04-18 17:21:00,48.0,41.0,30.04,South,182,9.0,19.0,78,0.00,,,0.01,,2014-04-19 00:21:00,
2014-04-18 17:42:00,49.0,42.0,30.04,South,181,7.0,21.0,76,0.00,,,0.01,,2014-04-19 00:42:00,
2014-04-18 17:52:00,48.0,43.0,30.05,South,177,11.0,21.0,84,0.00,,,0.01,,2014-04-19 00:52:00,
2014-04-18 18:22:00,46.0,44.0,30.05,South,182,9.0,18.0,94,0.00,,,0.01,,2014-04-19 01:22:00,
2014-04-18 18:52:00,44.0,44.0,30.04,SSW,195,3.0,10.0,99,0.00,,,0.01,,2014-04-19 01:52:00,
2014-04-18 19:22:00,44.0,44.0,30.04,East,79,2.0,4.0,99,0.00,,,0.01,,2014-04-19 02:22:00,
2014-04-18 19:52:00,44.0,44.0,30.05,East,90,2.0,4.0,99,0.00,,,0.01,,2014-04-19 02:52:00,
2014-04-18 20:21:00,43.0,43.0,30.06,ESE,115,2.0,4.0,99,0.00,,,0.01,,2014-04-19 03:21:00,
2014-04-18 20:53:00,43.0,43.0,30.06,ENE,61,2.0,4.0,99,0.01,,,0.02,,2014-04-19 03:53:00,
2014-04-18 21:23:00,43.0,43.0,30.06,East,90,4.0,6.0,99,0.01,,,0.02,,2014-04-19 04:23:00,
2014-04-18 21:53:00,43.0,43.0,30.06,NE,39,4.0,8.0,99,0.00,,,0.02,,2014-04-19 04:53:00,